Time;durP1;ratioP1;P1;durP2;ratioP2;P2;SDS_P1;SDS_P2;PMS_P1;PMS_P2;Temp;Humidity;BMP_temperature;BMP_pressure;BME280_temperature;BME280_humidity;BME280_pressure;Samples;Min_cycle;Max_cycle;Signal;HPM_P1;HPM_P2
2023/04/06 00:01:40;;;;;;;8.05;4.05;;;-0.90;99.90;;;;;;4979411;28;20022;-79
2023/04/06 00:04:06;;;;;;;11.05;4.45;;;-0.90;99.90;;;;;;4978550;28;20459;-78
2023/04/06 00:06:33;;;;;;;8.70;4.28;;;-0.90;99.90;;;;;;4996497;28;20085;-79
2023/04/06 00:08:59;;;;;;;8.25;3.67;;;-0.50;99.90;;;;;;4979137;28;20378;-79
2023/04/06 00:11:25;;;;;;;8.90;4.53;;;-0.90;99.90;;;;;;4997016;28;20037;-79
2023/04/06 00:13:51;;;;;;;6.03;4.30;;;-1.00;99.90;;;;;;4997474;28;20026;-79
2023/04/06 00:16:17;;;;;;;7.13;4.43;;;-1.00;99.90;;;;;;4978792;28;20030;-79
2023/04/06 00:18:42;;;;;;;15.07;5.15;;;-1.10;99.90;;;;;;4995880;28;20395;-79
2023/04/06 00:21:10;;;;;;;8.75;4.60;;;-1.10;99.90;;;;;;4996266;28;20034;-80
2023/04/06 00:23:36;;;;;;;6.27;4.10;;;-0.20;99.90;;;;;;4978349;28;20113;-78
2023/04/06 00:26:02;;;;;;;12.15;4.93;;;;;;;;;;4978389;28;20388;-79
2023/04/06 00:28:29;;;;;;;9.07;4.47;;;-1.20;99.90;;;;;;4977762;28;20028;-79
2023/04/06 00:30:55;;;;;;;9.90;4.65;;;0.40;99.90;;;;;;4995927;28;20191;-78
2023/04/06 00:33:22;;;;;;;9.75;5.05;;;-1.20;99.90;;;;;;4996513;28;20081;-79
2023/04/06 00:35:48;;;;;;;8.43;4.53;;;-1.20;99.90;;;;;;4998113;28;20113;-79
2023/04/06 00:38:14;;;;;;;6.55;4.10;;;-1.20;99.90;;;;;;4980133;28;20068;-79
2023/04/06 00:40:41;;;;;;;9.75;5.03;;;-1.20;99.90;;;;;;4980384;28;20022;-79
2023/04/06 00:43:07;;;;;;;8.18;4.55;;;-1.20;99.90;;;;;;4979762;28;20027;-79
2023/04/06 00:45:33;;;;;;;7.32;4.85;;;-0.70;99.90;;;;;;4980201;28;20034;-79
2023/04/06 00:47:58;;;;;;;8.88;4.57;;;0.00;99.90;;;;;;4998438;28;20077;-79
2023/04/06 00:50:25;;;;;;;9.02;5.00;;;-1.20;99.90;;;;;;4997304;28;20153;-79
2023/04/06 00:52:50;;;;;;;9.50;4.43;;;-1.30;99.90;;;;;;4980518;28;20026;-79
2023/04/06 00:55:16;;;;;;;12.65;4.53;;;-1.30;99.90;;;;;;4979738;28;20084;-79
2023/04/06 00:57:42;;;;;;;10.63;4.40;;;1.50;99.90;;;;;;4996922;28;20101;-79
2023/04/06 01:00:08;;;;;;;9.20;4.53;;;-1.40;99.90;;;;;;4979881;28;20060;-79
2023/04/06 01:02:34;;;;;;;9.60;4.90;;;-1.40;99.90;;;;;;4980072;28;20099;-79
2023/04/06 01:05:00;;;;;;;8.43;4.32;;;-1.30;99.90;;;;;;4980941;28;20046;-79
2023/04/06 01:07:26;;;;;;;8.05;4.22;;;-1.40;99.90;;;;;;4996961;28;20494;-79
2023/04/06 01:09:54;;;;;;;10.02;4.88;;;-1.40;99.90;;;;;;4979882;28;20029;-79
2023/04/06 01:12:19;;;;;;;10.17;5.23;;;-1.50;99.90;;;;;;4979650;28;20076;-79
2023/04/06 01:14:45;;;;;;;7.18;4.13;;;-1.50;99.90;;;;;;4979108;28;20125;-79
2023/04/06 01:17:11;;;;;;;6.72;4.18;;;-1.50;99.90;;;;;;4978929;28;20068;-79
2023/04/06 01:19:37;;;;;;;6.55;4.60;;;-1.50;99.90;;;;;;4997079;28;20569;-78
2023/04/06 01:22:02;;;;;;;8.23;4.93;;;-1.50;99.90;;;;;;4999549;28;20026;-79
2023/04/06 01:24:28;;;;;;;7.03;4.22;;;-0.60;99.90;;;;;;4982086;28;20028;-78
2023/04/06 01:26:54;;;;;;;7.68;4.53;;;-1.50;99.90;;;;;;4999047;28;20038;-79
2023/04/06 01:29:20;;;;;;;7.82;4.05;;;0.90;99.90;;;;;;4981593;28;20451;-78
2023/04/06 01:31:45;;;;;;;10.63;4.70;;;-1.00;99.90;;;;;;4981433;28;20438;-79
2023/04/06 01:34:11;;;;;;;9.93;4.63;;;-1.50;99.90;;;;;;4981219;28;20023;-78
2023/04/06 01:36:36;;;;;;;10.75;5.22;;;-1.50;99.90;;;;;;4998936;28;20509;-78
2023/04/06 01:39:02;;;;;;;8.48;4.70;;;-1.50;99.90;;;;;;4981311;28;20594;-78
2023/04/06 01:41:28;;;;;;;7.75;4.72;;;-1.10;99.90;;;;;;4981569;28;20030;-79
2023/04/06 01:43:54;;;;;;;7.25;4.30;;;-1.60;99.90;;;;;;4981557;28;20474;-78
2023/04/06 01:46:20;;;;;;;9.20;4.90;;;-1.60;99.90;;;;;;4998460;28;20038;-79
2023/04/06 01:48:46;;;;;;;8.05;4.20;;;-1.60;99.90;;;;;;4981419;28;20034;-78
2023/04/06 01:51:11;;;;;;;8.95;4.38;;;-1.60;99.90;;;;;;4999064;28;20463;-78
2023/04/06 01:53:37;;;;;;;7.75;4.90;;;-0.90;99.90;;;;;;4999302;28;20030;-76
2023/04/06 01:56:03;;;;;;;6.22;4.65;;;-1.70;99.90;;;;;;4982515;28;20033;-76
2023/04/06 01:58:28;;;;;;;7.75;5.20;;;-1.60;99.90;;;;;;4998456;28;20026;-76
2023/04/06 02:00:54;;;;;;;8.38;4.82;;;-1.70;99.90;;;;;;4998864;28;20096;-78
2023/04/06 02:03:20;;;;;;;8.30;4.78;;;-1.10;99.90;;;;;;4980932;28;20122;-78
2023/04/06 02:05:45;;;;;;;9.20;4.82;;;-1.70;99.90;;;;;;4981614;28;20410;-78
2023/04/06 02:08:11;;;;;;;11.10;5.28;;;-0.30;99.90;;;;;;4981222;28;20026;-78
2023/04/06 02:10:36;;;;;;;16.92;7.28;;;-1.70;99.90;;;;;;4980940;28;20034;-78
2023/04/06 02:13:02;;;;;;;26.23;8.70;;;-1.70;99.90;;;;;;4980776;28;20026;-78
2023/04/06 02:15:28;;;;;;;23.27;8.95;;;0.00;99.90;;;;;;4998507;28;20030;-78
2023/04/06 02:17:53;;;;;;;24.80;8.98;;;-1.80;99.90;;;;;;4981243;28;20026;-78
2023/04/06 02:20:19;;;;;;;20.90;8.30;;;-1.70;99.90;;;;;;4981153;28;20057;-78
2023/04/06 02:22:45;;;;;;;25.52;9.40;;;-1.80;99.90;;;;;;4981097;28;20029;-78
2023/04/06 02:25:11;;;;;;;17.88;8.23;;;-1.90;99.90;;;;;;4980864;28;20031;-78
2023/04/06 02:27:37;;;;;;;18.13;7.78;;;0.30;99.90;;;;;;4980907;28;20137;-78
2023/04/06 02:30:04;;;;;;;15.95;7.93;;;-1.90;99.90;;;;;;4997530;28;20087;-78
2023/04/06 02:32:29;;;;;;;15.95;7.15;;;-1.90;99.90;;;;;;4996010;28;20485;-79
2023/04/06 02:34:55;;;;;;;19.55;6.05;;;-1.90;99.90;;;;;;4997406;28;20066;-78
2023/04/06 02:37:23;;;;;;;14.70;6.88;;;-1.90;99.90;;;;;;4979982;28;20497;-78
2023/04/06 02:39:48;;;;;;;11.40;5.78;;;-0.10;99.90;;;;;;4980375;28;20029;-78
2023/04/06 02:42:15;;;;;;;10.43;4.95;;;-2.00;99.90;;;;;;4980153;28;20030;-79
2023/04/06 02:44:41;;;;;;;9.27;4.88;;;-0.20;99.90;;;;;;4997422;28;20065;-78
2023/04/06 02:47:07;;;;;;;10.10;5.47;;;-2.00;99.90;;;;;;4997716;28;20045;-78
2023/04/06 02:49:32;;;;;;;12.68;5.78;;;-2.00;99.90;;;;;;4980236;28;20023;-79
2023/04/06 02:51:58;;;;;;;9.90;4.95;;;-0.50;99.90;;;;;;4980221;28;20058;-79
2023/04/06 02:54:24;;;;;;;11.40;5.82;;;-2.00;99.90;;;;;;4979933;28;20026;-78
2023/04/06 02:56:49;;;;;;;9.07;5.40;;;-2.00;99.90;;;;;;4979970;28;20037;-79
2023/04/06 02:59:15;;;;;;;11.27;5.22;;;-2.10;99.90;;;;;;4998451;28;20459;-78
2023/04/06 03:01:41;;;;;;;9.85;5.13;;;-2.00;99.90;;;;;;4980727;28;20467;-78
2023/04/06 03:04:06;;;;;;;11.25;5.57;;;-2.00;99.90;;;;;;4980383;28;20026;-78
2023/04/06 03:06:32;;;;;;;9.88;5.15;;;-2.10;99.90;;;;;;4997535;28;20452;-78
2023/04/06 03:08:58;;;;;;;11.10;5.60;;;-1.50;99.90;;;;;;4980289;28;20042;-79
2023/04/06 03:11:23;;;;;;;7.72;4.80;;;-2.10;99.90;;;;;;4980179;28;20359;-79
2023/04/06 03:13:49;;;;;;;10.02;4.85;;;-0.20;99.90;;;;;;4997246;28;20078;-79
2023/04/06 03:16:14;;;;;;;8.65;4.50;;;-2.10;99.90;;;;;;4980430;28;20055;-79
2023/04/06 03:18:40;;;;;;;7.32;4.93;;;0.30;99.90;;;;;;4982220;28;20047;-79
2023/04/06 03:21:06;;;;;;;7.32;4.70;;;0.40;99.90;;;;;;5001968;28;20045;-79
2023/04/06 03:23:31;;;;;;;10.27;5.25;;;-2.20;99.90;;;;;;5002729;28;20086;-79
2023/04/06 03:25:57;;;;;;;9.30;4.30;;;-2.20;99.90;;;;;;4985517;28;20046;-79
2023/04/06 03:28:22;;;;;;;9.20;5.05;;;-2.20;99.90;;;;;;4999715;28;20052;-79
2023/04/06 03:30:49;;;;;;;11.70;4.93;;;-2.10;99.90;;;;;;4980461;28;20026;-78
2023/04/06 03:33:15;;;;;;;8.65;4.53;;;-2.10;99.90;;;;;;4997031;28;20485;-78
2023/04/06 03:35:40;;;;;;;8.90;4.65;;;-2.20;99.90;;;;;;4996933;28;20031;-78
2023/04/06 03:38:06;;;;;;;13.02;5.53;;;-1.10;99.90;;;;;;4979208;28;20459;-79
2023/04/06 03:40:32;;;;;;;7.88;4.95;;;-2.20;99.90;;;;;;4996750;28;20022;-79
2023/04/06 03:42:57;;;;;;;13.82;4.68;;;-0.60;99.90;;;;;;4979260;28;20022;-78
2023/04/06 03:45:23;;;;;;;7.65;5.05;;;0.40;99.90;;;;;;4996567;28;20033;-79
2023/04/06 03:47:48;;;;;;;12.07;5.22;;;-0.80;99.90;;;;;;4996467;28;20023;-79
2023/04/06 03:50:14;;;;;;;9.43;5.63;;;-1.80;99.90;;;;;;4979140;28;20026;-79
2023/04/06 03:52:40;;;;;;;9.18;4.43;;;-2.30;99.90;;;;;;4979364;28;20076;-78
2023/04/06 03:55:06;;;;;;;6.65;4.70;;;-2.00;99.90;;;;;;4978934;28;20034;-79
2023/04/06 03:57:32;;;;;;;11.00;4.68;;;-2.40;99.90;;;;;;4978678;28;20511;-79
2023/04/06 03:59:58;;;;;;;13.07;5.60;;;-1.20;99.90;;;;;;4979486;28;20026;-79
2023/04/06 04:02:23;;;;;;;8.88;4.88;;;-2.30;99.90;;;;;;4979145;28;20026;-79
2023/04/06 04:04:49;;;;;;;8.18;4.70;;;-2.30;99.90;;;;;;4996135;28;20034;-79
2023/04/06 04:07:15;;;;;;;10.13;4.32;;;-2.00;99.90;;;;;;4979043;28;20034;-79
2023/04/06 04:09:40;;;;;;;7.78;4.82;;;-2.30;99.90;;;;;;4996530;28;20023;-78
2023/04/06 04:12:06;;;;;;;9.88;4.55;;;-2.00;99.90;;;;;;4978774;28;20058;-79
2023/04/06 04:14:32;;;;;;;9.52;5.45;;;-2.20;99.90;;;;;;4978692;28;20057;-79
2023/04/06 04:16:57;;;;;;;11.85;4.70;;;-2.20;99.90;;;;;;4978909;28;20486;-79
2023/04/06 04:19:23;;;;;;;9.63;4.68;;;-2.20;99.90;;;;;;4978414;28;20058;-79
2023/04/06 04:21:49;;;;;;;14.82;4.93;;;-2.20;99.90;;;;;;4996601;28;20101;-79
2023/04/06 04:24:14;;;;;;;9.25;5.18;;;-1.10;99.90;;;;;;4995993;28;20105;-79
2023/04/06 04:26:40;;;;;;;16.55;5.07;;;-1.50;99.90;;;;;;4978564;28;20030;-79
2023/04/06 04:29:06;;;;;;;6.88;4.95;;;-2.20;99.90;;;;;;4995210;28;20041;-79
2023/04/06 04:31:32;;;;;;;12.32;5.93;;;-2.10;99.90;;;;;;4995592;28;20048;-79
2023/04/06 04:34:00;;;;;;;9.52;5.53;;;-2.10;99.90;;;;;;4977952;28;20113;-79
2023/04/06 04:36:26;;;;;;;5.80;4.25;;;-2.20;99.90;;;;;;4995820;28;20030;-79
2023/04/06 04:38:52;;;;;;;10.52;5.10;;;-2.20;99.90;;;;;;4977777;28;20027;-79
2023/04/06 04:41:18;;;;;;;7.50;4.35;;;-2.10;99.90;;;;;;4978284;28;20037;-79
2023/04/06 04:43:44;;;;;;;12.70;4.93;;;-2.00;99.90;;;;;;4978017;28;20022;-79
2023/04/06 04:46:10;;;;;;;8.00;4.53;;;-2.10;99.90;;;;;;4995200;28;20105;-79
2023/04/06 04:48:35;;;;;;;13.63;5.40;;;-2.10;99.90;;;;;;4978551;28;20085;-79
2023/04/06 04:51:01;;;;;;;11.88;5.15;;;0.00;99.90;;;;;;4997167;28;20037;-79
2023/04/06 04:53:27;;;;;;;8.77;4.65;;;-2.10;99.90;;;;;;4979957;28;20030;-79
2023/04/06 04:55:53;;;;;;;11.95;5.13;;;-2.10;99.90;;;;;;4985616;28;20042;-79
2023/04/06 04:58:19;;;;;;;10.25;4.75;;;-2.10;99.90;;;;;;4987810;28;20056;-81
2023/04/06 05:00:45;;;;;;;9.13;4.82;;;1.10;99.90;;;;;;5004837;28;20018;-81
2023/04/06 05:03:20;;;;;;;10.60;5.40;;;-0.70;99.90;;;;;;5005546;28;20018;-81
2023/04/06 05:05:46;;;;;;;10.75;7.00;;;0.60;99.90;;;;;;4987810;28;20125;-81
2023/04/06 05:08:12;;;;;;;9.40;5.43;;;0.00;99.90;;;;;;5004723;28;20053;-82
2023/04/06 05:10:38;;;;;;;15.57;7.78;;;-2.00;99.90;;;;;;4987534;28;20036;-82
2023/04/06 05:13:03;;;;;;;15.05;8.32;;;-1.70;99.90;;;;;;4987009;28;20053;-82
2023/04/06 05:15:29;;;;;;;19.05;8.10;;;-1.50;99.90;;;;;;5005872;28;20106;-82
2023/04/06 05:17:55;;;;;;;15.90;7.40;;;-2.00;99.90;;;;;;4988032;28;20034;-82
2023/04/06 05:20:20;;;;;;;14.48;7.15;;;-1.90;99.90;;;;;;4984468;28;20070;-82
2023/04/06 05:22:46;;;;;;;14.68;7.25;;;1.30;99.90;;;;;;5002080;28;20037;-82
2023/04/06 05:25:13;;;;;;;12.88;6.60;;;-2.00;99.90;;;;;;5000914;28;20030;-82
2023/04/06 05:27:39;;;;;;;17.10;6.55;;;-1.60;99.90;;;;;;4983319;28;20042;-82
2023/04/06 05:30:06;;;;;;;12.32;6.30;;;-1.50;99.90;;;;;;4983680;28;20034;-82
2023/04/06 05:32:31;;;;;;;12.50;6.05;;;-1.40;99.90;;;;;;4982985;28;20031;-82
2023/04/06 05:34:57;;;;;;;15.35;6.63;;;-0.30;99.90;;;;;;4987975;28;20050;-83
2023/04/06 05:37:23;;;;;;;13.30;6.78;;;-1.10;99.90;;;;;;5003796;28;20038;-80
2023/04/06 05:39:49;;;;;;;12.45;5.80;;;1.10;99.90;;;;;;4998817;28;20382;-79
2023/04/06 05:42:15;;;;;;;11.40;5.43;;;-0.50;99.90;;;;;;4998058;28;20022;-80
2023/04/06 05:44:41;;;;;;;11.70;5.65;;;-0.30;99.90;;;;;;4981731;28;20030;-81
2023/04/06 05:47:06;;;;;;;15.48;6.43;;;-0.10;99.90;;;;;;4997884;28;20037;-80
2023/04/06 05:49:32;;;;;;;10.85;6.05;;;1.40;99.90;;;;;;4980288;28;20026;-81
2023/04/06 05:51:58;;;;;;;11.13;5.90;;;0.40;99.90;;;;;;4997595;28;20101;-79
2023/04/06 05:54:24;;;;;;;17.52;6.55;;;1.70;99.90;;;;;;4998265;28;20026;-80
2023/04/06 05:56:49;;;;;;;17.48;7.13;;;1.00;99.90;;;;;;4998168;28;20128;-78
2023/04/06 05:59:15;;;;;;;16.77;7.53;;;1.20;99.90;;;;;;4979825;28;20026;-79
2023/04/06 06:01:41;;;;;;;13.52;6.10;;;1.60;99.90;;;;;;4979906;28;20049;-79
2023/04/06 06:04:06;;;;;;;19.45;7.55;;;1.60;99.90;;;;;;4979909;28;20383;-79
2023/04/06 06:06:32;;;;;;;16.42;6.70;;;1.90;99.90;;;;;;4979409;28;20089;-77
2023/04/06 06:09:02;;;;;;;17.55;7.60;;;2.30;99.90;;;;;;4979867;28;20483;-78
2023/04/06 06:11:28;;;;;;;13.70;6.65;;;2.60;99.90;;;;;;4979563;28;20030;-78
2023/04/06 06:13:53;;;;;;;13.00;5.93;;;5.00;99.30;;;;;;4996646;28;20033;-79
2023/04/06 06:16:19;;;;;;;15.00;6.25;;;3.20;96.80;;;;;;4996871;28;20034;-78
2023/04/06 06:18:45;;;;;;;9.80;5.35;;;3.50;95.20;;;;;;4979499;28;20065;-78
2023/04/06 06:21:12;;;;;;;12.85;6.15;;;4.10;92.10;;;;;;4997001;28;20026;-79
2023/04/06 06:23:38;;;;;;;8.35;4.78;;;3.10;92.10;;;;;;4979404;28;20061;-80
2023/04/06 06:26:04;;;;;;;11.38;4.95;;;4.40;90.70;;;;;;4981270;28;20034;-81
2023/04/06 06:28:30;;;;;;;8.15;4.80;;;4.60;88.80;;;;;;4979899;28;20100;-79
2023/04/06 06:30:56;;;;;;;5.57;4.28;;;4.90;86.30;;;;;;4980139;28;20130;-79
2023/04/06 06:33:21;;;;;;;4.82;4.05;;;5.10;83.10;;;;;;4979306;28;20117;-79
2023/04/06 06:35:47;;;;;;;11.48;4.55;;;5.10;80.10;;;;;;4979381;28;20498;-79
2023/04/06 06:38:13;;;;;;;13.75;4.43;;;5.10;79.60;;;;;;4979213;28;20033;-79
2023/04/06 06:40:40;;;;;;;9.50;4.35;;;5.40;77.00;;;;;;4979108;28;20425;-79
2023/04/06 06:43:06;;;;;;;7.95;4.18;;;5.40;78.10;;;;;;4996611;28;20197;-79
2023/04/06 06:45:31;;;;;;;8.88;4.82;;;5.50;76.40;;;;;;4978954;28;20117;-79
2023/04/06 06:47:57;;;;;;;7.55;4.75;;;5.60;76.10;;;;;;4979357;28;20026;-78
2023/04/06 06:50:23;;;;;;;7.45;4.32;;;5.60;76.70;;;;;;4996601;28;20023;-79
2023/04/06 06:52:48;;;;;;;6.18;4.20;;;5.80;76.00;;;;;;4998760;28;20033;-79
2023/04/06 06:55:15;;;;;;;6.93;5.30;;;5.90;74.40;;;;;;4979839;28;20050;-80
2023/04/06 06:57:42;;;;;;;6.32;4.22;;;5.80;73.60;;;;;;4985510;28;20546;-84
2023/04/06 07:00:08;;;;;;;10.20;5.88;;;5.80;74.40;;;;;;4988380;28;20121;-80
2023/04/06 07:02:35;;;;;;;6.50;4.18;;;6.10;74.00;;;;;;5002879;28;20077;-83
2023/04/06 07:05:01;;;;;;;8.30;4.85;;;6.10;72.90;;;;;;5000400;28;20101;-79
2023/04/06 07:07:27;;;;;;;5.43;4.53;;;6.20;72.80;;;;;;4978471;28;20034;-79
2023/04/06 07:09:52;;;;;;;8.32;4.35;;;6.20;72.20;;;;;;4978601;28;20038;-78
2023/04/06 07:12:18;;;;;;;7.68;5.10;;;6.40;72.60;;;;;;4997325;28;20030;-78
2023/04/06 07:14:44;;;;;;;9.43;4.45;;;5.80;73.20;;;;;;4998835;28;20102;-81
2023/04/06 07:17:28;;;;;;;7.57;4.93;;;5.80;73.50;;;;;;4998101;28;20066;-63
2023/04/06 07:19:54;;;;;;;7.40;4.50;;;5.80;76.50;;;;;;4995626;28;20050;-63
2023/04/06 07:22:19;;;;;;;8.23;5.15;;;5.80;78.80;;;;;;4995488;28;20145;-63
2023/04/06 07:24:45;;;;;;;7.35;4.43;;;6.00;76.80;;;;;;4995311;28;20030;-63
2023/04/06 07:27:11;;;;;;;6.47;4.45;;;6.30;75.60;;;;;;4995464;28;20146;-63
2023/04/06 07:29:36;;;;;;;6.80;4.38;;;6.30;75.00;;;;;;4997395;28;20026;-82
2023/04/06 07:32:02;;;;;;;6.75;4.30;;;6.40;72.80;;;;;;4988599;28;20030;-83
2023/04/06 07:34:28;;;;;;;7.63;4.63;;;6.50;72.90;;;;;;5000078;28;20022;-81
2023/04/06 07:36:54;;;;;;;11.18;4.57;;;6.60;72.00;;;;;;4999555;28;20034;-79
2023/04/06 07:39:20;;;;;;;14.50;4.18;;;6.70;71.90;;;;;;4978119;28;20022;-63
2023/04/06 07:41:45;;;;;;;9.27;4.65;;;6.80;72.60;;;;;;4995227;28;20121;-78
2023/04/06 07:44:11;;;;;;;8.27;5.07;;;6.70;71.00;;;;;;4978251;28;20112;-77
2023/04/06 07:46:37;;;;;;;10.35;4.75;;;6.80;71.80;;;;;;4977918;28;20418;-79
2023/04/06 07:49:03;;;;;;;7.18;4.82;;;6.60;71.40;;;;;;4994971;28;20038;-77
2023/04/06 07:51:28;;;;;;;9.38;4.93;;;6.60;72.70;;;;;;4977834;28;20037;-76
2023/04/06 07:53:54;;;;;;;6.30;4.32;;;6.70;72.30;;;;;;4994959;28;20022;-75
2023/04/06 07:56:20;;;;;;;11.30;4.78;;;6.90;72.70;;;;;;4977622;28;20054;-75
2023/04/06 07:58:46;;;;;;;8.43;4.70;;;6.90;71.90;;;;;;4977545;28;20033;-77
2023/04/06 08:01:12;;;;;;;9.35;4.70;;;7.20;71.20;;;;;;4977839;28;20026;-78
2023/04/06 08:03:38;;;;;;;8.35;4.70;;;7.30;69.70;;;;;;4995105;28;20041;-78
2023/04/06 08:06:03;;;;;;;6.75;4.55;;;7.60;70.20;;;;;;4994909;28;20073;-79
2023/04/06 08:08:30;;;;;;;8.98;4.82;;;7.90;69.60;;;;;;4977498;28;20121;-79
2023/04/06 08:10:56;;;;;;;10.48;4.80;;;8.10;67.90;;;;;;4977372;28;20030;-78
2023/04/06 08:13:22;;;;;;;10.63;4.40;;;8.10;67.80;;;;;;4977415;28;20118;-79
2023/04/06 08:15:47;;;;;;;7.68;4.13;;;8.30;67.30;;;;;;4977494;28;20034;-79
2023/04/06 08:18:13;;;;;;;5.40;3.72;;;8.40;66.00;;;;;;4977507;28;20417;-79
2023/04/06 08:20:39;;;;;;;8.10;4.60;;;8.60;65.50;;;;;;4977112;28;20442;-79
2023/04/06 08:23:06;;;;;;;8.57;4.45;;;8.80;64.40;;;;;;4976970;28;20057;-78
2023/04/06 08:25:33;;;;;;;7.32;3.85;;;8.70;64.60;;;;;;4977182;28;20030;-79
2023/04/06 08:27:59;;;;;;;13.63;3.72;;;8.40;64.40;;;;;;4994668;28;20376;-78
2023/04/06 08:30:25;;;;;;;6.90;3.40;;;8.40;64.70;;;;;;4995072;28;20029;-79
2023/04/06 08:32:50;;;;;;;5.35;3.60;;;8.50;64.60;;;;;;4977847;28;20063;-79
2023/04/06 08:35:16;;;;;;;7.97;3.67;;;8.60;63.50;;;;;;4977833;28;20032;-79
2023/04/06 08:37:42;;;;;;;5.68;3.63;;;8.90;64.40;;;;;;4977659;28;20058;-79
2023/04/06 08:40:08;;;;;;;5.93;3.45;;;9.00;62.90;;;;;;4977512;28;20027;-79
2023/04/06 08:42:39;;;;;;;6.50;3.65;;;9.50;62.10;;;;;;4994639;28;20026;-79
2023/04/06 08:45:05;;;;;;;7.28;3.25;;;9.60;60.50;;;;;;4994842;28;20057;-79
2023/04/06 08:47:31;;;;;;;4.38;3.13;;;9.30;61.10;;;;;;4977180;28;20383;-79
2023/04/06 08:49:58;;;;;;;5.88;2.90;;;9.30;60.70;;;;;;4994984;28;20034;-79
2023/04/06 08:52:26;;;;;;;4.45;3.10;;;9.20;60.40;;;;;;4961084;28;20058;-79
2023/04/06 08:54:52;;;;;;;8.38;3.30;;;9.30;60.20;;;;;;4976939;28;20035;-79
2023/04/06 08:57:19;;;;;;;6.97;3.33;;;9.90;59.50;;;;;;4994171;28;20390;-79
2023/04/06 08:59:45;;;;;;;4.82;3.70;;;10.40;57.90;;;;;;4976898;28;20031;-79
2023/04/06 09:02:17;;;;;;;6.60;3.10;;;10.20;57.40;;;;;;4976872;28;20475;-79
2023/04/06 09:04:44;;;;;;;5.45;3.30;;;10.20;58.40;;;;;;4976546;28;20034;-79
2023/04/06 09:07:10;;;;;;;8.70;4.20;;;10.70;56.70;;;;;;4976667;28;20363;-79
2023/04/06 09:09:36;;;;;;;6.03;4.03;;;10.30;56.20;;;;;;4976669;28;20029;-79
2023/04/06 09:12:05;;;;;;;6.25;3.80;;;9.60;57.90;;;;;;4994189;28;20030;-79
2023/04/06 09:14:36;;;;;;;8.85;3.72;;;9.50;59.00;;;;;;4976856;28;20026;-81
2023/04/06 09:17:02;;;;;;;6.10;3.45;;;10.00;57.70;;;;;;4994306;28;20031;-79
2023/04/06 09:19:27;;;;;;;5.47;2.95;;;10.50;56.60;;;;;;4976285;28;20049;-79
2023/04/06 09:22:08;;;;;;;6.95;3.65;;;10.50;55.40;;;;;;4976700;28;20058;-79
2023/04/06 09:24:53;;;;;;;9.48;4.10;;;10.30;56.50;;;;;;4994172;28;20022;-79
2023/04/06 09:27:33;;;;;;;9.13;4.38;;;9.50;57.50;;;;;;4976522;28;20430;-79
2023/04/06 09:30:13;;;;;;;7.32;4.20;;;8.90;60.20;;;;;;4976915;28;20033;-79
2023/04/06 09:32:50;;;;;;;4.30;3.42;;;9.00;60.50;;;;;;4977019;28;20030;-79
2023/04/06 09:35:16;;;;;;;9.05;3.70;;;10.50;56.80;;;;;;4976850;28;20026;-79
2023/04/06 09:37:43;;;;;;;8.00;3.92;;;10.50;57.30;;;;;;4977006;28;20034;-79
2023/04/06 09:40:09;;;;;;;8.15;4.00;;;11.40;55.60;;;;;;4977992;28;20471;-80
2023/04/06 09:42:35;;;;;;;5.60;3.40;;;11.40;54.60;;;;;;4980243;28;20482;-80
2023/04/06 09:45:02;;;;;;;8.07;2.80;;;12.00;53.00;;;;;;4980099;28;20121;-80
2023/04/06 09:47:30;;;;;;;3.22;2.53;;;11.70;51.40;;;;;;4980206;28;20038;-80
2023/04/06 09:49:58;;;;;;;6.22;2.60;;;12.00;49.60;;;;;;4997443;28;20073;-79
2023/04/06 09:52:31;;;;;;;3.83;2.78;;;12.00;49.40;;;;;;4997536;28;20026;-79
2023/04/06 09:55:01;;;;;;;4.55;2.40;;;10.80;49.90;;;;;;4980032;28;20125;-80
2023/04/06 09:57:34;;;;;;;3.83;2.67;;;9.80;52.00;;;;;;4997281;28;20034;-80
2023/04/06 10:00:11;;;;;;;3.13;2.45;;;10.10;52.30;;;;;;4980536;28;20042;-79
2023/04/06 10:02:58;;;;;;;2.78;2.00;;;10.80;52.30;;;;;;4997473;28;20022;-79
2023/04/06 10:05:37;;;;;;;5.30;2.75;;;11.00;50.70;;;;;;4997478;28;20037;-79
2023/04/06 10:08:07;;;;;;;4.85;2.50;;;11.50;48.30;;;;;;4997513;28;20037;-79
2023/04/06 10:10:32;;;;;;;3.33;2.00;;;12.20;46.70;;;;;;4981155;28;20031;-80
2023/04/06 10:12:59;;;;;;;2.33;1.98;;;12.90;45.00;;;;;;4979703;28;20033;-80
2023/04/06 10:15:25;;;;;;;2.67;1.83;;;13.20;45.30;;;;;;4996602;28;20026;-80
2023/04/06 10:17:51;;;;;;;4.25;1.77;;;13.80;44.10;;;;;;4996711;28;20518;-80
2023/04/06 10:20:23;;;;;;;2.88;1.95;;;14.00;41.30;;;;;;4996682;28;20078;-80
2023/04/06 10:22:56;;;;;;;2.50;1.70;;;13.30;40.30;;;;;;4979738;28;20490;-80
2023/04/06 10:25:32;;;;;;;6.18;1.95;;;13.20;41.10;;;;;;4979793;28;20113;-80
2023/04/06 10:28:09;;;;;;;4.65;1.90;;;13.20;41.10;;;;;;4979417;28;20035;-80
2023/04/06 10:30:41;;;;;;;2.80;1.70;;;13.60;40.80;;;;;;4979276;28;20534;-80
2023/04/06 10:33:17;;;;;;;3.05;1.60;;;13.80;40.00;;;;;;4978855;28;20057;-80
2023/04/06 10:35:43;;;;;;;3.15;1.95;;;13.90;40.40;;;;;;4979048;28;20537;-80
2023/04/06 10:38:09;;;;;;;4.05;1.80;;;14.40;39.40;;;;;;4996558;28;20109;-80
2023/04/06 10:40:37;;;;;;;2.72;1.85;;;13.90;38.00;;;;;;4979842;28;20440;-80
2023/04/06 10:43:17;;;;;;;3.20;2.00;;;13.40;39.40;;;;;;4979046;28;20030;-80
2023/04/06 10:45:44;;;;;;;1.92;1.65;;;13.30;38.90;;;;;;4979433;28;20026;-81
2023/04/06 10:48:17;;;;;;;2.95;1.80;;;13.80;38.90;;;;;;4996233;28;20105;-81
2023/04/06 10:50:51;;;;;;;3.20;1.70;;;13.50;38.00;;;;;;4996499;28;20027;-80
2023/04/06 10:53:24;;;;;;;4.15;2.10;;;13.10;38.50;;;;;;4978130;28;20090;-80
2023/04/06 10:55:51;;;;;;;4.25;1.98;;;13.50;39.00;;;;;;4997166;28;20101;-81
2023/04/06 10:58:16;;;;;;;7.22;1.88;;;14.10;38.30;;;;;;4997942;28;20141;-80
2023/04/06 11:00:47;;;;;;;3.47;2.05;;;14.10;38.10;;;;;;4981949;28;20098;-79
2023/04/06 11:03:13;;;;;;;4.85;2.30;;;13.20;38.40;;;;;;4984108;28;20073;-81
2023/04/06 11:05:42;;;;;;;2.58;1.90;;;13.10;39.30;;;;;;5001152;28;20414;-80
2023/04/06 11:08:08;;;;;;;2.55;1.90;;;14.00;38.50;;;;;;4998607;28;20027;-80
2023/04/06 11:10:34;;;;;;;1.90;1.70;;;14.50;37.60;;;;;;4982693;28;20033;-78
2023/04/06 11:12:59;;;;;;;4.72;3.28;;;14.50;36.50;;;;;;5001033;28;20084;-78
2023/04/06 11:15:25;;;;;;;6.15;2.33;;;14.20;37.10;;;;;;5000714;28;20022;-83
2023/04/06 11:17:51;;;;;;;1.75;1.65;;;14.80;36.70;;;;;;4998837;28;20519;-84
2023/04/06 11:20:19;;;;;;;3.22;1.88;;;14.40;36.30;;;;;;4997602;28;20097;-82
2023/04/06 11:22:49;;;;;;;2.10;1.88;;;14.90;36.50;;;;;;4980154;28;20057;-80
2023/04/06 11:25:16;;;;;;;2.90;1.42;;;14.70;35.90;;;;;;4998936;28;20459;-79
2023/04/06 11:27:42;;;;;;;3.78;1.95;;;14.40;36.30;;;;;;4979779;28;20041;-77
2023/04/06 11:30:09;;;;;;;2.17;1.75;;;15.20;36.30;;;;;;4978069;28;20085;-81
2023/04/06 11:32:42;;;;;;;2.08;1.60;;;14.80;35.40;;;;;;5000655;28;20026;-82
2023/04/06 11:35:12;;;;;;;3.70;1.55;;;13.70;37.30;;;;;;4978671;28;20033;-82
2023/04/06 11:37:38;;;;;;;2.45;1.48;;;13.80;37.40;;;;;;4978308;28;20073;-83
2023/04/06 11:40:07;;;;;;;3.35;2.00;;;13.60;38.30;;;;;;4995642;28;20117;-83
2023/04/06 11:42:35;;;;;;;3.03;2.03;;;14.00;37.30;;;;;;4995630;28;20033;-83
2023/04/06 11:45:01;;;;;;;2.65;2.38;;;14.30;37.20;;;;;;4995381;28;20034;-80
2023/04/06 11:47:30;;;;;;;3.13;1.80;;;13.80;35.90;;;;;;4989848;28;20035;-84
2023/04/06 11:49:58;;;;;;;2.00;1.83;;;13.70;35.60;;;;;;5071114;22;20516;-81
2023/04/06 11:52:27;;;;;;;2.27;1.93;;;13.70;36.50;;;;;;5019569;28;20018;-82
2023/04/06 11:54:56;;;;;;;4.00;1.83;;;13.80;36.60;;;;;;4999011;28;20372;-81
2023/04/06 11:57:25;;;;;;;2.30;2.00;;;14.10;36.60;;;;;;4997710;28;20424;-82
2023/04/06 11:59:51;;;;;;;2.65;1.75;;;13.90;36.90;;;;;;5016045;28;20022;-83
2023/04/06 12:02:17;;;;;;;5.60;1.92;;;13.90;36.90;;;;;;4998039;28;20477;-82
2023/04/06 12:04:43;;;;;;;2.22;1.73;;;14.30;35.90;;;;;;4997177;28;20022;-82
2023/04/06 12:07:09;;;;;;;2.08;1.90;;;14.30;35.50;;;;;;4998346;28;20076;-82
2023/04/06 12:09:36;;;;;;;3.80;2.00;;;14.10;35.90;;;;;;4998793;28;20029;-87
2023/04/06 12:12:02;;;;;;;2.45;1.83;;;14.90;35.80;;;;;;4998049;28;20021;-84
2023/04/06 12:14:28;;;;;;;8.05;2.17;;;16.10;34.90;;;;;;4997735;28;20033;-89
2023/04/06 12:16:54;;;;;;;2.72;1.95;;;15.30;33.60;;;;;;5008667;28;20018;-83
2023/04/06 12:19:19;;;;;;;3.45;1.92;;;14.30;35.60;;;;;;5010851;28;20528;-83
2023/04/06 12:21:45;;;;;;;3.13;2.13;;;14.50;35.70;;;;;;4997321;28;20026;-78
2023/04/06 12:24:11;;;;;;;5.47;2.28;;;15.50;34.70;;;;;;5013847;28;20051;-78
2023/04/06 12:26:37;;;;;;;3.10;2.00;;;15.30;33.90;;;;;;4996624;28;20080;-76
2023/04/06 12:29:06;;;;;;;6.50;2.28;;;15.00;34.60;;;;;;4996938;28;20030;-79
2023/04/06 12:31:34;;;;;;;5.95;1.95;;;14.60;34.80;;;;;;4997055;28;20402;-79
2023/04/06 12:34:01;;;;;;;2.45;1.83;;;14.30;34.80;;;;;;4997702;28;20030;-79
2023/04/06 12:36:27;;;;;;;4.88;2.40;;;14.10;35.70;;;;;;4997494;28;20103;-80
2023/04/06 12:38:53;;;;;;;4.97;2.17;;;14.50;35.70;;;;;;4996461;28;20521;-79
2023/04/06 12:41:19;;;;;;;8.23;2.30;;;14.80;34.90;;;;;;4996746;28;20117;-80
2023/04/06 12:43:45;;;;;;;3.22;2.20;;;15.10;34.70;;;;;;4996511;28;20030;-80
2023/04/06 12:46:11;;;;;;;2.63;1.60;;;15.70;34.70;;;;;;4996159;28;20481;-78